Herington, Kansas
Current Conditions -  °F | °C
As of 1:58 AM on Tuesday 21 Oct 2014 (Local Time) from KFRI Reporting Station
Clear Clear  
Wind Chill: 44°   Ceiling: Unl
Heat Index: 44°   Visibility: 10mi
Dew Point: 44°   Wind: 3mph
Humidity: 99%   Direction: 10°N
Pressure: 30.08"   Gusts: NA
Location:  38.67°N, 96.94°W
Report Text: KFRI 210658Z AUTO 01003KT 10SM CLR 07/07 A3008 RMK AO2 SLP182 T00680067
Loading
Personal Weather Stations






























Interactive Weather Map
Tropical Storm Tracking
New forecast layout! Learn more

10-Day Weather Forecast

Advertisements
Track Severe Weather on mobile